Frutuoso Gomes, Brazil
Current Conditions -  °F | °C
As of 11:00 AM on Thursday 23 Oct 2014 (Local Time) from SBMS Reporting Station
Scattered Clouds Scattered Clouds  
Wind Chill: 93°   Ceiling: Unl
Heat Index: 96°   Visibility: 6mi
Dew Point: 66°   Wind: 10mph
Humidity: 41%   Direction: 100°E
Pressure: 29.91"   Gusts: NA
Location:  6.16°S, 37.84°W
Report Text: SBMS 231400Z 10009KT 9999 SCT030 34/19 Q1013
Loading
Personal Weather Stations






























Interactive Weather Map
Tropical Storm Tracking
New forecast layout! Learn more

10-Day Weather Forecast

Advertisements
Track Severe Weather on mobile